This is the latest recevied weather packets stored in our database for station/object N6WDO. If no packets are shown the sender has not sent any weather packets the latest 10 day(s).
| Time | Temp. | Humidity | Pressure | Rain* | Wind** | Luminosity | Snow |
|---|---|---|---|---|---|---|---|
| 1777421965 | 21.11° C | 45% | 1018.4 hPa | 0 mm | - | 62 W/m² | - |
| 1777421660 | 21.67° C | 44% | 1018.3 hPa | 0 mm | - | 64 W/m² | - |
| 1777421355 | 21.67° C | 43% | 1018.2 hPa | 0 mm | - | 286 W/m² | - |
| 1777421051 | 21.67° C | 42% | 1018.2 hPa | 0 mm | - | 77 W/m² | - |
| 1777420748 | 22.22° C | 41% | 1018.3 hPa | 0 mm | - | 227 W/m² | - |
| 1777420444 | 22.22° C | 44% | 1018 hPa | 0 mm | - | 54 W/m² | - |
| 1777420141 | 22.78° C | 40% | 1018.3 hPa | 0 mm | - | 257 W/m² | - |
| 1777419837 | 22.22° C | 41% | 1018.3 hPa | 0 mm | - | 369 W/m² | - |
| 1777419535 | 21.67° C | 42% | 1018.2 hPa | 0 mm | - | 382 W/m² | - |
| 1777419233 | 22.22° C | 39% | 1018.4 hPa | 0 mm | - | 396 W/m² | - |
| 1777418925 | 22.22° C | 41% | 1018.5 hPa | 0 mm | - | 307 W/m² | - |
| 1777418619 | 21.67° C | 43% | 1018.4 hPa | 0 mm | - | 424 W/m² | - |
| 1777418316 | 21.67° C | 42% | 1018.5 hPa | 0 mm | - | 61 W/m² | - |
| 1777418012 | 21.11° C | 46% | 1018.3 hPa | 0 mm | - | 451 W/m² | - |
| 1777417708 | 21.67° C | 42% | 1018.5 hPa | 0 mm | - | 464 W/m² | - |
| 1777417404 | 21.67° C | 42% | 1018.3 hPa | 0 mm | - | 477 W/m² | - |
| 1777417100 | 21.67° C | 42% | 1018.5 hPa | 0 mm | - | 491 W/m² | - |
| 1777416796 | 21.11° C | 44% | 1018.7 hPa | 0 mm | - | 503 W/m² | - |
| 1777416491 | 20.56° C | 44% | 1018.4 hPa | 0 mm | - | 514 W/m² | - |
| 1777416188 | 21.67° C | 42% | 1018.4 hPa | 0 mm | - | 524 W/m² | - |
| 1777415881 | 21.11° C | 44% | 1018.5 hPa | 0 mm | - | 534 W/m² | - |
| 1777415578 | 21.11° C | 44% | 1018.7 hPa | 0 mm | - | 547 W/m² | - |
| 1777415273 | 21.11° C | 45% | 1018.6 hPa | 0 mm | - | 558 W/m² | - |
| 1777414968 | 21.11° C | 45% | 1018.6 hPa | 0 mm | - | 569 W/m² | - |
| 1777414668 | 21.11° C | 45% | 1018.9 hPa | 0 mm | - | 578 W/m² | - |
* Rain latest hour (hover to see other rain measurements)
** Current wind speed in m/s (hover to see current wind gust speed)